sensor_id;sensor_type;location;lat;lon;timestamp;P1;durP1;ratioP1;P2;durP2;ratioP2
31764;SDS011;18338;53.240;8.798;2023-03-21T00:01:50;48.40;;;32.00;;
31764;SDS011;18338;53.240;8.798;2023-03-21T00:04:18;48.70;;;32.90;;
31764;SDS011;18338;53.240;8.798;2023-03-21T00:06:46;46.47;;;30.50;;
31764;SDS011;18338;53.240;8.798;2023-03-21T00:09:12;49.55;;;32.33;;
31764;SDS011;18338;53.240;8.798;2023-03-21T00:11:39;47.78;;;32.53;;
31764;SDS011;18338;53.240;8.798;2023-03-21T00:14:06;50.65;;;32.33;;
31764;SDS011;18338;53.240;8.798;2023-03-21T00:16:34;49.83;;;32.15;;
31764;SDS011;18338;53.240;8.798;2023-03-21T00:19:05;49.67;;;32.85;;
31764;SDS011;18338;53.240;8.798;2023-03-21T00:21:35;51.33;;;32.78;;
31764;SDS011;18338;53.240;8.798;2023-03-21T00:24:21;48.97;;;32.65;;
31764;SDS011;18338;53.240;8.798;2023-03-21T00:26:48;53.17;;;33.05;;
31764;SDS011;18338;53.240;8.798;2023-03-21T00:29:17;52.55;;;34.38;;
31764;SDS011;18338;53.240;8.798;2023-03-21T00:31:49;56.35;;;35.47;;
31764;SDS011;18338;53.240;8.798;2023-03-21T00:34:47;55.95;;;35.22;;
31764;SDS011;18338;53.240;8.798;2023-03-21T00:37:51;51.40;;;32.78;;
31764;SDS011;18338;53.240;8.798;2023-03-21T00:43:53;50.30;;;33.85;;
31764;SDS011;18338;53.240;8.798;2023-03-21T00:46:30;53.80;;;35.33;;
31764;SDS011;18338;53.240;8.798;2023-03-21T00:49:38;55.53;;;35.85;;
31764;SDS011;18338;53.240;8.798;2023-03-21T00:52:39;56.80;;;33.63;;
31764;SDS011;18338;53.240;8.798;2023-03-21T00:58:36;56.33;;;34.97;;
31764;SDS011;18338;53.240;8.798;2023-03-21T01:01:39;53.50;;;32.67;;
31764;SDS011;18338;53.240;8.798;2023-03-21T01:04:27;51.88;;;33.55;;
31764;SDS011;18338;53.240;8.798;2023-03-21T01:07:11;55.10;;;32.92;;
31764;SDS011;18338;53.240;8.798;2023-03-21T01:10:06;55.53;;;33.00;;
31764;SDS011;18338;53.240;8.798;2023-03-21T01:12:52;52.15;;;33.67;;
31764;SDS011;18338;53.240;8.798;2023-03-21T01:18:58;53.00;;;32.05;;
31764;SDS011;18338;53.240;8.798;2023-03-21T01:21:25;50.63;;;33.30;;
31764;SDS011;18338;53.240;8.798;2023-03-21T01:23:51;53.85;;;33.95;;
31764;SDS011;18338;53.240;8.798;2023-03-21T01:26:18;48.90;;;32.97;;
31764;SDS011;18338;53.240;8.798;2023-03-21T01:28:45;53.28;;;33.13;;
31764;SDS011;18338;53.240;8.798;2023-03-21T01:31:13;51.35;;;32.97;;
31764;SDS011;18338;53.240;8.798;2023-03-21T01:33:41;54.45;;;32.78;;
31764;SDS011;18338;53.240;8.798;2023-03-21T01:36:08;52.10;;;32.03;;
31764;SDS011;18338;53.240;8.798;2023-03-21T01:38:41;49.33;;;31.80;;
31764;SDS011;18338;53.240;8.798;2023-03-21T01:41:29;48.60;;;32.33;;
31764;SDS011;18338;53.240;8.798;2023-03-21T01:44:10;49.22;;;32.17;;
31764;SDS011;18338;53.240;8.798;2023-03-21T01:49:24;51.92;;;32.55;;
31764;SDS011;18338;53.240;8.798;2023-03-21T01:52:04;48.20;;;31.45;;
31764;SDS011;18338;53.240;8.798;2023-03-21T01:54:40;49.60;;;31.25;;
31764;SDS011;18338;53.240;8.798;2023-03-21T01:57:10;48.22;;;30.58;;
31764;SDS011;18338;53.240;8.798;2023-03-21T01:59:40;47.03;;;31.30;;
31764;SDS011;18338;53.240;8.798;2023-03-21T02:02:10;48.45;;;31.38;;
31764;SDS011;18338;53.240;8.798;2023-03-21T02:04:42;47.67;;;30.92;;
31764;SDS011;18338;53.240;8.798;2023-03-21T02:07:23;46.13;;;30.33;;
31764;SDS011;18338;53.240;8.798;2023-03-21T02:09:54;45.53;;;29.45;;
31764;SDS011;18338;53.240;8.798;2023-03-21T02:12:22;48.17;;;30.60;;
31764;SDS011;18338;53.240;8.798;2023-03-21T02:14:49;48.35;;;30.88;;
31764;SDS011;18338;53.240;8.798;2023-03-21T02:17:19;47.38;;;30.95;;
31764;SDS011;18338;53.240;8.798;2023-03-21T02:20:15;46.28;;;30.90;;
31764;SDS011;18338;53.240;8.798;2023-03-21T02:28:55;48.67;;;30.42;;
31764;SDS011;18338;53.240;8.798;2023-03-21T02:39:52;53.30;;;32.00;;
31764;SDS011;18338;53.240;8.798;2023-03-21T02:44:58;55.60;;;32.55;;
31764;SDS011;18338;53.240;8.798;2023-03-21T02:50:31;58.72;;;33.85;;
31764;SDS011;18338;53.240;8.798;2023-03-21T02:52:59;56.70;;;34.83;;
31764;SDS011;18338;53.240;8.798;2023-03-21T02:55:29;58.08;;;33.33;;
31764;SDS011;18338;53.240;8.798;2023-03-21T02:57:58;59.20;;;35.38;;
31764;SDS011;18338;53.240;8.798;2023-03-21T03:00:37;61.08;;;35.75;;
31764;SDS011;18338;53.240;8.798;2023-03-21T03:03:05;63.17;;;36.60;;
31764;SDS011;18338;53.240;8.798;2023-03-21T03:05:41;66.15;;;36.55;;
31764;SDS011;18338;53.240;8.798;2023-03-21T03:10:58;61.63;;;35.83;;
31764;SDS011;18338;53.240;8.798;2023-03-21T03:13:45;65.82;;;36.60;;
31764;SDS011;18338;53.240;8.798;2023-03-21T03:19:03;60.75;;;37.40;;
31764;SDS011;18338;53.240;8.798;2023-03-21T03:21:39;60.88;;;35.92;;
31764;SDS011;18338;53.240;8.798;2023-03-21T03:27:05;63.30;;;37.63;;
31764;SDS011;18338;53.240;8.798;2023-03-21T03:29:38;63.22;;;35.40;;
31764;SDS011;18338;53.240;8.798;2023-03-21T03:32:08;66.72;;;37.50;;
31764;SDS011;18338;53.240;8.798;2023-03-21T03:34:39;60.25;;;35.75;;
31764;SDS011;18338;53.240;8.798;2023-03-21T03:37:11;65.43;;;36.05;;
31764;SDS011;18338;53.240;8.798;2023-03-21T03:39:48;62.50;;;36.13;;
31764;SDS011;18338;53.240;8.798;2023-03-21T03:42:35;62.25;;;37.40;;
31764;SDS011;18338;53.240;8.798;2023-03-21T03:45:05;60.75;;;34.28;;
31764;SDS011;18338;53.240;8.798;2023-03-21T03:47:36;60.85;;;35.35;;
31764;SDS011;18338;53.240;8.798;2023-03-21T03:52:52;60.58;;;35.33;;
31764;SDS011;18338;53.240;8.798;2023-03-21T03:55:26;57.33;;;36.05;;
31764;SDS011;18338;53.240;8.798;2023-03-21T03:57:59;56.63;;;34.10;;
31764;SDS011;18338;53.240;8.798;2023-03-21T04:00:32;58.80;;;34.83;;
31764;SDS011;18338;53.240;8.798;2023-03-21T04:03:00;61.97;;;36.03;;
31764;SDS011;18338;53.240;8.798;2023-03-21T04:05:26;60.28;;;35.20;;
31764;SDS011;18338;53.240;8.798;2023-03-21T04:07:53;59.60;;;34.40;;
31764;SDS011;18338;53.240;8.798;2023-03-21T04:10:20;58.15;;;35.92;;
31764;SDS011;18338;53.240;8.798;2023-03-21T04:12:48;57.53;;;35.40;;
31764;SDS011;18338;53.240;8.798;2023-03-21T04:15:14;59.60;;;35.15;;
31764;SDS011;18338;53.240;8.798;2023-03-21T04:17:41;61.15;;;35.40;;
31764;SDS011;18338;53.240;8.798;2023-03-21T04:20:08;61.40;;;35.58;;
31764;SDS011;18338;53.240;8.798;2023-03-21T04:22:45;62.28;;;35.25;;
31764;SDS011;18338;53.240;8.798;2023-03-21T04:25:13;58.58;;;35.08;;
31764;SDS011;18338;53.240;8.798;2023-03-21T04:27:52;58.83;;;35.13;;
31764;SDS011;18338;53.240;8.798;2023-03-21T04:30:20;57.63;;;35.55;;
31764;SDS011;18338;53.240;8.798;2023-03-21T04:32:50;65.45;;;35.00;;
31764;SDS011;18338;53.240;8.798;2023-03-21T04:35:19;60.00;;;35.60;;
31764;SDS011;18338;53.240;8.798;2023-03-21T04:37:46;62.13;;;36.95;;
31764;SDS011;18338;53.240;8.798;2023-03-21T04:40:13;70.00;;;38.08;;
31764;SDS011;18338;53.240;8.798;2023-03-21T04:42:43;59.13;;;37.40;;
31764;SDS011;18338;53.240;8.798;2023-03-21T04:45:11;68.32;;;38.15;;
31764;SDS011;18338;53.240;8.798;2023-03-21T04:47:38;64.38;;;37.35;;
31764;SDS011;18338;53.240;8.798;2023-03-21T04:50:07;69.68;;;37.30;;
31764;SDS011;18338;53.240;8.798;2023-03-21T04:52:35;68.65;;;36.92;;
31764;SDS011;18338;53.240;8.798;2023-03-21T04:55:02;68.50;;;36.92;;
31764;SDS011;18338;53.240;8.798;2023-03-21T04:57:29;71.70;;;39.28;;
31764;SDS011;18338;53.240;8.798;2023-03-21T04:59:56;71.57;;;38.05;;
31764;SDS011;18338;53.240;8.798;2023-03-21T05:02:22;73.43;;;37.97;;
31764;SDS011;18338;53.240;8.798;2023-03-21T05:04:49;74.63;;;38.78;;
31764;SDS011;18338;53.240;8.798;2023-03-21T05:07:16;74.70;;;38.60;;
31764;SDS011;18338;53.240;8.798;2023-03-21T05:09:42;78.10;;;40.88;;
31764;SDS011;18338;53.240;8.798;2023-03-21T05:12:09;80.00;;;39.85;;
31764;SDS011;18338;53.240;8.798;2023-03-21T05:14:36;84.43;;;41.83;;
31764;SDS011;18338;53.240;8.798;2023-03-21T05:17:02;81.07;;;40.10;;
31764;SDS011;18338;53.240;8.798;2023-03-21T05:19:30;78.45;;;39.72;;
31764;SDS011;18338;53.240;8.798;2023-03-21T05:22:02;85.40;;;40.17;;
31764;SDS011;18338;53.240;8.798;2023-03-21T05:24:30;90.45;;;42.50;;
31764;SDS011;18338;53.240;8.798;2023-03-21T05:26:58;81.97;;;40.13;;
31764;SDS011;18338;53.240;8.798;2023-03-21T05:29:28;96.85;;;43.35;;
31764;SDS011;18338;53.240;8.798;2023-03-21T05:31:56;91.43;;;41.67;;
31764;SDS011;18338;53.240;8.798;2023-03-21T05:34:24;92.88;;;42.65;;
31764;SDS011;18338;53.240;8.798;2023-03-21T05:36:51;93.53;;;42.58;;
31764;SDS011;18338;53.240;8.798;2023-03-21T05:39:19;98.13;;;44.78;;
31764;SDS011;18338;53.240;8.798;2023-03-21T05:42:32;91.70;;;42.50;;
31764;SDS011;18338;53.240;8.798;2023-03-21T05:44:39;89.65;;;43.67;;
31764;SDS011;18338;53.240;8.798;2023-03-21T05:47:05;86.53;;;42.65;;
31764;SDS011;18338;53.240;8.798;2023-03-21T05:49:33;96.20;;;44.55;;
31764;SDS011;18338;53.240;8.798;2023-03-21T05:52:00;96.90;;;45.30;;
31764;SDS011;18338;53.240;8.798;2023-03-21T05:54:26;92.10;;;44.15;;
31764;SDS011;18338;53.240;8.798;2023-03-21T05:56:53;98.47;;;45.00;;
31764;SDS011;18338;53.240;8.798;2023-03-21T05:59:20;93.50;;;42.78;;
31764;SDS011;18338;53.240;8.798;2023-03-21T06:01:46;90.63;;;43.30;;
31764;SDS011;18338;53.240;8.798;2023-03-21T06:04:13;95.40;;;44.47;;
31764;SDS011;18338;53.240;8.798;2023-03-21T06:06:40;87.00;;;40.20;;
31764;SDS011;18338;53.240;8.798;2023-03-21T06:09:07;94.65;;;44.50;;
31764;SDS011;18338;53.240;8.798;2023-03-21T06:11:35;95.57;;;46.15;;
31764;SDS011;18338;53.240;8.798;2023-03-21T06:14:03;97.07;;;47.72;;
31764;SDS011;18338;53.240;8.798;2023-03-21T06:16:29;106.57;;;47.90;;
31764;SDS011;18338;53.240;8.798;2023-03-21T06:18:56;102.47;;;46.70;;
31764;SDS011;18338;53.240;8.798;2023-03-21T06:21:22;100.90;;;48.35;;
31764;SDS011;18338;53.240;8.798;2023-03-21T06:23:51;99.63;;;47.50;;
31764;SDS011;18338;53.240;8.798;2023-03-21T06:26:19;94.25;;;46.90;;
31764;SDS011;18338;53.240;8.798;2023-03-21T06:28:50;90.68;;;44.00;;
31764;SDS011;18338;53.240;8.798;2023-03-21T06:31:17;88.35;;;43.15;;
31764;SDS011;18338;53.240;8.798;2023-03-21T06:33:48;87.50;;;43.88;;
31764;SDS011;18338;53.240;8.798;2023-03-21T06:36:15;85.78;;;41.42;;
31764;SDS011;18338;53.240;8.798;2023-03-21T06:38:42;83.45;;;42.65;;
31764;SDS011;18338;53.240;8.798;2023-03-21T06:41:09;86.65;;;42.20;;
31764;SDS011;18338;53.240;8.798;2023-03-21T06:43:35;81.10;;;42.63;;
31764;SDS011;18338;53.240;8.798;2023-03-21T06:46:02;81.30;;;39.88;;
31764;SDS011;18338;53.240;8.798;2023-03-21T06:48:29;78.82;;;41.85;;
31764;SDS011;18338;53.240;8.798;2023-03-21T06:50:56;74.80;;;41.38;;
31764;SDS011;18338;53.240;8.798;2023-03-21T06:56:16;75.88;;;41.40;;
31764;SDS011;18338;53.240;8.798;2023-03-21T06:58:42;76.00;;;41.50;;
31764;SDS011;18338;53.240;8.798;2023-03-21T07:01:09;73.35;;;42.00;;
31764;SDS011;18338;53.240;8.798;2023-03-21T07:03:36;75.82;;;42.33;;
31764;SDS011;18338;53.240;8.798;2023-03-21T07:06:04;72.95;;;39.20;;
31764;SDS011;18338;53.240;8.798;2023-03-21T07:08:38;68.45;;;38.05;;
31764;SDS011;18338;53.240;8.798;2023-03-21T07:11:06;62.97;;;36.90;;
31764;SDS011;18338;53.240;8.798;2023-03-21T07:13:33;65.45;;;38.03;;
31764;SDS011;18338;53.240;8.798;2023-03-21T07:16:00;59.75;;;37.03;;
31764;SDS011;18338;53.240;8.798;2023-03-21T07:18:27;56.80;;;35.05;;
31764;SDS011;18338;53.240;8.798;2023-03-21T07:20:55;60.03;;;34.83;;
31764;SDS011;18338;53.240;8.798;2023-03-21T07:23:23;49.53;;;33.47;;
31764;SDS011;18338;53.240;8.798;2023-03-21T07:25:51;52.42;;;33.97;;
31764;SDS011;18338;53.240;8.798;2023-03-21T07:28:18;49.45;;;33.00;;
31764;SDS011;18338;53.240;8.798;2023-03-21T07:30:50;47.25;;;31.75;;
31764;SDS011;18338;53.240;8.798;2023-03-21T07:33:21;47.35;;;30.92;;
31764;SDS011;18338;53.240;8.798;2023-03-21T07:35:49;49.45;;;29.90;;
31764;SDS011;18338;53.240;8.798;2023-03-21T07:38:16;45.47;;;30.00;;
31764;SDS011;18338;53.240;8.798;2023-03-21T07:40:44;43.22;;;28.98;;
31764;SDS011;18338;53.240;8.798;2023-03-21T07:43:12;48.92;;;29.75;;
31764;SDS011;18338;53.240;8.798;2023-03-21T07:45:39;44.42;;;28.02;;
31764;SDS011;18338;53.240;8.798;2023-03-21T07:48:08;43.50;;;27.40;;
31764;SDS011;18338;53.240;8.798;2023-03-21T07:50:35;40.40;;;27.05;;
31764;SDS011;18338;53.240;8.798;2023-03-21T07:53:02;38.30;;;25.58;;
31764;SDS011;18338;53.240;8.798;2023-03-21T07:55:29;39.20;;;26.15;;
31764;SDS011;18338;53.240;8.798;2023-03-21T07:57:57;40.35;;;26.77;;
31764;SDS011;18338;53.240;8.798;2023-03-21T08:00:23;35.45;;;25.88;;
31764;SDS011;18338;53.240;8.798;2023-03-21T08:02:51;41.58;;;26.63;;
31764;SDS011;18338;53.240;8.798;2023-03-21T08:05:27;35.78;;;26.08;;
31764;SDS011;18338;53.240;8.798;2023-03-21T08:07:55;37.53;;;23.90;;
31764;SDS011;18338;53.240;8.798;2023-03-21T08:10:22;32.88;;;22.83;;
31764;SDS011;18338;53.240;8.798;2023-03-21T08:12:49;35.53;;;25.52;;
31764;SDS011;18338;53.240;8.798;2023-03-21T08:15:16;38.17;;;25.98;;
31764;SDS011;18338;53.240;8.798;2023-03-21T08:17:43;37.40;;;26.73;;
31764;SDS011;18338;53.240;8.798;2023-03-21T08:20:14;37.40;;;25.90;;
31764;SDS011;18338;53.240;8.798;2023-03-21T08:22:43;34.42;;;25.90;;
31764;SDS011;18338;53.240;8.798;2023-03-21T08:25:11;35.53;;;23.85;;
31764;SDS011;18338;53.240;8.798;2023-03-21T08:27:40;35.75;;;25.95;;
31764;SDS011;18338;53.240;8.798;2023-03-21T08:30:11;36.20;;;26.20;;
31764;SDS011;18338;53.240;8.798;2023-03-21T08:32:39;37.53;;;25.38;;
31764;SDS011;18338;53.240;8.798;2023-03-21T08:35:07;32.95;;;25.23;;
31764;SDS011;18338;53.240;8.798;2023-03-21T08:37:37;34.38;;;25.83;;
31764;SDS011;18338;53.240;8.798;2023-03-21T08:40:06;32.83;;;24.52;;
31764;SDS011;18338;53.240;8.798;2023-03-21T08:42:36;36.20;;;24.08;;
31764;SDS011;18338;53.240;8.798;2023-03-21T08:45:03;30.67;;;22.52;;
31764;SDS011;18338;53.240;8.798;2023-03-21T08:47:31;31.40;;;23.48;;
31764;SDS011;18338;53.240;8.798;2023-03-21T08:49:58;34.42;;;24.15;;
31764;SDS011;18338;53.240;8.798;2023-03-21T08:52:25;30.42;;;23.33;;
31764;SDS011;18338;53.240;8.798;2023-03-21T08:54:54;29.88;;;22.55;;
31764;SDS011;18338;53.240;8.798;2023-03-21T08:57:21;27.73;;;21.58;;
31764;SDS011;18338;53.240;8.798;2023-03-21T08:59:48;29.20;;;22.02;;
31764;SDS011;18338;53.240;8.798;2023-03-21T09:02:15;29.40;;;22.50;;
31764;SDS011;18338;53.240;8.798;2023-03-21T09:04:42;28.65;;;22.17;;
31764;SDS011;18338;53.240;8.798;2023-03-21T09:07:10;26.80;;;21.13;;
31764;SDS011;18338;53.240;8.798;2023-03-21T09:09:39;25.95;;;20.63;;
31764;SDS011;18338;53.240;8.798;2023-03-21T09:12:07;26.73;;;21.38;;
31764;SDS011;18338;53.240;8.798;2023-03-21T09:14:34;28.65;;;22.45;;
31764;SDS011;18338;53.240;8.798;2023-03-21T09:17:01;28.63;;;23.00;;
31764;SDS011;18338;53.240;8.798;2023-03-21T09:19:27;31.25;;;22.88;;
31764;SDS011;18338;53.240;8.798;2023-03-21T09:21:55;24.10;;;20.15;;
31764;SDS011;18338;53.240;8.798;2023-03-21T09:24:22;25.08;;;19.48;;
31764;SDS011;18338;53.240;8.798;2023-03-21T09:26:49;24.67;;;19.17;;
31764;SDS011;18338;53.240;8.798;2023-03-21T09:29:16;23.85;;;18.45;;
31764;SDS011;18338;53.240;8.798;2023-03-21T09:31:48;19.52;;;16.02;;
31764;SDS011;18338;53.240;8.798;2023-03-21T09:34:15;19.17;;;16.00;;
31764;SDS011;18338;53.240;8.798;2023-03-21T09:36:42;16.98;;;14.80;;
31764;SDS011;18338;53.240;8.798;2023-03-21T09:39:19;17.85;;;14.35;;
31764;SDS011;18338;53.240;8.798;2023-03-21T09:41:49;19.73;;;15.48;;
31764;SDS011;18338;53.240;8.798;2023-03-21T09:49:55;20.08;;;15.50;;
31764;SDS011;18338;53.240;8.798;2023-03-21T09:52:42;20.75;;;15.98;;
31764;SDS011;18338;53.240;8.798;2023-03-21T09:55:26;19.00;;;14.05;;
31764;SDS011;18338;53.240;8.798;2023-03-21T09:58:02;18.35;;;15.15;;
31764;SDS011;18338;53.240;8.798;2023-03-21T10:00:51;15.85;;;12.35;;
31764;SDS011;18338;53.240;8.798;2023-03-21T10:03:28;15.88;;;14.00;;
31764;SDS011;18338;53.240;8.798;2023-03-21T10:06:02;19.38;;;14.90;;
31764;SDS011;18338;53.240;8.798;2023-03-21T10:08:35;18.92;;;15.23;;
31764;SDS011;18338;53.240;8.798;2023-03-21T10:13:48;15.40;;;13.70;;
31764;SDS011;18338;53.240;8.798;2023-03-21T10:16:31;17.40;;;13.88;;
31764;SDS011;18338;53.240;8.798;2023-03-21T10:19:05;16.45;;;13.70;;
31764;SDS011;18338;53.240;8.798;2023-03-21T10:21:37;13.07;;;11.68;;
31764;SDS011;18338;53.240;8.798;2023-03-21T10:24:30;14.95;;;12.23;;
31764;SDS011;18338;53.240;8.798;2023-03-21T10:26:58;12.70;;;11.40;;
31764;SDS011;18338;53.240;8.798;2023-03-21T10:29:27;15.07;;;11.88;;
31764;SDS011;18338;53.240;8.798;2023-03-21T10:31:57;14.80;;;11.18;;
31764;SDS011;18338;53.240;8.798;2023-03-21T10:34:30;13.00;;;11.60;;
31764;SDS011;18338;53.240;8.798;2023-03-21T10:37:01;13.05;;;11.48;;
31764;SDS011;18338;53.240;8.798;2023-03-21T10:39:36;11.77;;;10.57;;
31764;SDS011;18338;53.240;8.798;2023-03-21T10:42:05;11.68;;;10.45;;
31764;SDS011;18338;53.240;8.798;2023-03-21T10:44:38;13.13;;;10.60;;
31764;SDS011;18338;53.240;8.798;2023-03-21T10:47:06;11.50;;;9.68;;
31764;SDS011;18338;53.240;8.798;2023-03-21T10:49:37;11.32;;;9.50;;
31764;SDS011;18338;53.240;8.798;2023-03-21T10:52:25;11.55;;;10.40;;
31764;SDS011;18338;53.240;8.798;2023-03-21T10:55:06;12.20;;;10.40;;
31764;SDS011;18338;53.240;8.798;2023-03-21T10:57:42;11.90;;;10.68;;
31764;SDS011;18338;53.240;8.798;2023-03-21T11:00:12;12.70;;;11.40;;
31764;SDS011;18338;53.240;8.798;2023-03-21T11:02:47;13.75;;;12.20;;
31764;SDS011;18338;53.240;8.798;2023-03-21T11:07:46;12.13;;;10.90;;
31764;SDS011;18338;53.240;8.798;2023-03-21T11:10:14;12.80;;;10.88;;
31764;SDS011;18338;53.240;8.798;2023-03-21T11:12:54;11.93;;;9.85;;
31764;SDS011;18338;53.240;8.798;2023-03-21T11:15:30;11.50;;;10.30;;
31764;SDS011;18338;53.240;8.798;2023-03-21T11:21:05;13.95;;;10.32;;
31764;SDS011;18338;53.240;8.798;2023-03-21T11:23:35;12.85;;;10.90;;
31764;SDS011;18338;53.240;8.798;2023-03-21T11:26:08;13.88;;;10.80;;
31764;SDS011;18338;53.240;8.798;2023-03-21T11:28:38;11.65;;;9.95;;
31764;SDS011;18338;53.240;8.798;2023-03-21T11:31:07;13.48;;;11.35;;
31764;SDS011;18338;53.240;8.798;2023-03-21T11:33:39;13.60;;;10.93;;
31764;SDS011;18338;53.240;8.798;2023-03-21T11:38:47;14.50;;;11.25;;
31764;SDS011;18338;53.240;8.798;2023-03-21T11:41:22;11.63;;;10.45;;
31764;SDS011;18338;53.240;8.798;2023-03-21T11:43:55;13.43;;;10.32;;
31764;SDS011;18338;53.240;8.798;2023-03-21T11:46:23;13.75;;;12.00;;
31764;SDS011;18338;53.240;8.798;2023-03-21T11:48:51;15.25;;;12.10;;
31764;SDS011;18338;53.240;8.798;2023-03-21T11:51:28;12.77;;;10.35;;
31764;SDS011;18338;53.240;8.798;2023-03-21T11:54:15;11.82;;;10.43;;
31764;SDS011;18338;53.240;8.798;2023-03-21T11:56:55;11.70;;;10.27;;
31764;SDS011;18338;53.240;8.798;2023-03-21T11:59:51;12.23;;;10.45;;
31764;SDS011;18338;53.240;8.798;2023-03-21T12:02:43;12.63;;;9.82;;
31764;SDS011;18338;53.240;8.798;2023-03-21T12:05:35;13.85;;;10.27;;
31764;SDS011;18338;53.240;8.798;2023-03-21T12:08:08;14.00;;;10.82;;
31764;SDS011;18338;53.240;8.798;2023-03-21T12:10:57;11.95;;;10.20;;
31764;SDS011;18338;53.240;8.798;2023-03-21T12:24:22;17.92;;;15.30;;
31764;SDS011;18338;53.240;8.798;2023-03-21T12:27:03;15.70;;;12.48;;
31764;SDS011;18338;53.240;8.798;2023-03-21T12:29:49;15.27;;;11.85;;
31764;SDS011;18338;53.240;8.798;2023-03-21T12:32:41;19.25;;;16.52;;
31764;SDS011;18338;53.240;8.798;2023-03-21T12:35:30;23.73;;;21.17;;
31764;SDS011;18338;53.240;8.798;2023-03-21T12:38:24;19.83;;;16.00;;
31764;SDS011;18338;53.240;8.798;2023-03-21T12:41:19;33.13;;;24.05;;
31764;SDS011;18338;53.240;8.798;2023-03-21T12:46:47;17.42;;;14.07;;
31764;SDS011;18338;53.240;8.798;2023-03-21T12:49:32;15.80;;;12.98;;
31764;SDS011;18338;53.240;8.798;2023-03-21T12:52:24;17.95;;;15.32;;
31764;SDS011;18338;53.240;8.798;2023-03-21T12:55:01;18.83;;;15.43;;
31764;SDS011;18338;53.240;8.798;2023-03-21T12:57:49;23.63;;;18.92;;
31764;SDS011;18338;53.240;8.798;2023-03-21T13:00:27;18.58;;;16.52;;
31764;SDS011;18338;53.240;8.798;2023-03-21T13:03:14;20.38;;;17.98;;
31764;SDS011;18338;53.240;8.798;2023-03-21T13:06:06;22.23;;;17.45;;
31764;SDS011;18338;53.240;8.798;2023-03-21T13:08:48;21.65;;;17.58;;
31764;SDS011;18338;53.240;8.798;2023-03-21T13:11:30;22.48;;;19.38;;
31764;SDS011;18338;53.240;8.798;2023-03-21T13:14:17;36.22;;;31.45;;
31764;SDS011;18338;53.240;8.798;2023-03-21T13:16:55;25.52;;;22.48;;
31764;SDS011;18338;53.240;8.798;2023-03-21T13:19:28;52.58;;;41.22;;
31764;SDS011;18338;53.240;8.798;2023-03-21T13:22:05;32.22;;;25.20;;
31764;SDS011;18338;53.240;8.798;2023-03-21T13:24:37;25.67;;;21.20;;
31764;SDS011;18338;53.240;8.798;2023-03-21T13:27:29;32.70;;;26.63;;
31764;SDS011;18338;53.240;8.798;2023-03-21T13:32:43;26.98;;;23.73;;
31764;SDS011;18338;53.240;8.798;2023-03-21T13:35:13;29.38;;;24.83;;
31764;SDS011;18338;53.240;8.798;2023-03-21T13:37:50;27.83;;;24.15;;
31764;SDS011;18338;53.240;8.798;2023-03-21T13:40:25;27.52;;;24.15;;
31764;SDS011;18338;53.240;8.798;2023-03-21T13:46:07;26.77;;;21.08;;
31764;SDS011;18338;53.240;8.798;2023-03-21T13:54:03;22.02;;;18.15;;
31764;SDS011;18338;53.240;8.798;2023-03-21T13:59:18;23.08;;;18.52;;
31764;SDS011;18338;53.240;8.798;2023-03-21T14:04:58;20.02;;;17.55;;
31764;SDS011;18338;53.240;8.798;2023-03-21T14:07:52;20.73;;;17.23;;
31764;SDS011;18338;53.240;8.798;2023-03-21T14:10:43;19.40;;;17.38;;
31764;SDS011;18338;53.240;8.798;2023-03-21T14:13:15;19.42;;;17.35;;
31764;SDS011;18338;53.240;8.798;2023-03-21T14:15:58;23.25;;;19.98;;
31764;SDS011;18338;53.240;8.798;2023-03-21T14:18:38;22.88;;;19.02;;
31764;SDS011;18338;53.240;8.798;2023-03-21T14:21:27;19.02;;;16.15;;
31764;SDS011;18338;53.240;8.798;2023-03-21T14:24:03;20.30;;;17.08;;
31764;SDS011;18338;53.240;8.798;2023-03-21T14:26:35;18.20;;;16.40;;
31764;SDS011;18338;53.240;8.798;2023-03-21T14:29:06;20.05;;;16.10;;
31764;SDS011;18338;53.240;8.798;2023-03-21T14:31:51;17.08;;;14.30;;
31764;SDS011;18338;53.240;8.798;2023-03-21T14:34:19;15.45;;;13.85;;
31764;SDS011;18338;53.240;8.798;2023-03-21T14:36:48;17.70;;;15.52;;
31764;SDS011;18338;53.240;8.798;2023-03-21T14:39:30;16.08;;;13.32;;
31764;SDS011;18338;53.240;8.798;2023-03-21T14:42:04;15.85;;;14.18;;
31764;SDS011;18338;53.240;8.798;2023-03-21T14:44:39;15.57;;;13.95;;
31764;SDS011;18338;53.240;8.798;2023-03-21T14:49:49;16.70;;;13.93;;
31764;SDS011;18338;53.240;8.798;2023-03-21T14:52:19;16.73;;;14.70;;
31764;SDS011;18338;53.240;8.798;2023-03-21T14:55:46;18.13;;;15.32;;
31764;SDS011;18338;53.240;8.798;2023-03-21T14:58:22;18.52;;;14.57;;
31764;SDS011;18338;53.240;8.798;2023-03-21T15:00:49;20.05;;;15.95;;
31764;SDS011;18338;53.240;8.798;2023-03-21T15:03:16;18.52;;;16.55;;
31764;SDS011;18338;53.240;8.798;2023-03-21T15:05:45;17.13;;;15.43;;
31764;SDS011;18338;53.240;8.798;2023-03-21T15:08:13;17.30;;;15.07;;
31764;SDS011;18338;53.240;8.798;2023-03-21T15:10:41;19.20;;;15.98;;
31764;SDS011;18338;53.240;8.798;2023-03-21T15:13:33;16.85;;;15.15;;
31764;SDS011;18338;53.240;8.798;2023-03-21T15:16:05;18.23;;;16.05;;
31764;SDS011;18338;53.240;8.798;2023-03-21T15:18:34;20.05;;;15.50;;
31764;SDS011;18338;53.240;8.798;2023-03-21T15:21:04;21.70;;;19.00;;
31764;SDS011;18338;53.240;8.798;2023-03-21T15:23:37;18.13;;;16.23;;
31764;SDS011;18338;53.240;8.798;2023-03-21T15:26:16;19.58;;;17.48;;
31764;SDS011;18338;53.240;8.798;2023-03-21T15:28:46;21.45;;;17.63;;
31764;SDS011;18338;53.240;8.798;2023-03-21T15:31:19;20.70;;;18.35;;
31764;SDS011;18338;53.240;8.798;2023-03-21T15:33:53;18.88;;;16.92;;
31764;SDS011;18338;53.240;8.798;2023-03-21T15:36:22;20.05;;;17.40;;
31764;SDS011;18338;53.240;8.798;2023-03-21T15:39:00;21.67;;;19.08;;
31764;SDS011;18338;53.240;8.798;2023-03-21T15:41:31;22.13;;;19.63;;
31764;SDS011;18338;53.240;8.798;2023-03-21T15:46:32;20.73;;;18.45;;
31764;SDS011;18338;53.240;8.798;2023-03-21T15:49:17;20.33;;;18.20;;
31764;SDS011;18338;53.240;8.798;2023-03-21T15:52:12;23.30;;;18.58;;
31764;SDS011;18338;53.240;8.798;2023-03-21T15:57:22;21.27;;;18.33;;
31764;SDS011;18338;53.240;8.798;2023-03-21T16:00:00;19.60;;;17.30;;
31764;SDS011;18338;53.240;8.798;2023-03-21T16:02:43;19.35;;;17.23;;
31764;SDS011;18338;53.240;8.798;2023-03-21T16:07:46;19.58;;;17.50;;
31764;SDS011;18338;53.240;8.798;2023-03-21T16:10:24;24.17;;;19.52;;
31764;SDS011;18338;53.240;8.798;2023-03-21T16:12:57;20.70;;;18.50;;
31764;SDS011;18338;53.240;8.798;2023-03-21T16:15:24;19.35;;;17.35;;
31764;SDS011;18338;53.240;8.798;2023-03-21T16:17:53;17.92;;;15.65;;
31764;SDS011;18338;53.240;8.798;2023-03-21T16:20:25;20.73;;;16.20;;
31764;SDS011;18338;53.240;8.798;2023-03-21T16:23:00;19.73;;;16.48;;
31764;SDS011;18338;53.240;8.798;2023-03-21T16:25:30;17.42;;;15.20;;
31764;SDS011;18338;53.240;8.798;2023-03-21T16:27:58;17.30;;;15.05;;
31764;SDS011;18338;53.240;8.798;2023-03-21T16:30:25;17.67;;;14.50;;
31764;SDS011;18338;53.240;8.798;2023-03-21T16:32:52;16.90;;;15.20;;
31764;SDS011;18338;53.240;8.798;2023-03-21T16:35:19;17.42;;;15.50;;
31764;SDS011;18338;53.240;8.798;2023-03-21T16:37:48;20.98;;;18.75;;
31764;SDS011;18338;53.240;8.798;2023-03-21T16:40:16;16.75;;;14.60;;